Time;durP1;ratioP1;P1;durP2;ratioP2;P2;SDS_P1;SDS_P2;PMS_P1;PMS_P2;Temp;Humidity;BMP_temperature;BMP_pressure;BME280_temperature;BME280_humidity;BME280_pressure;Samples;Min_cycle;Max_cycle;Signal;HPM_P1;HPM_P2
2021/01/31 00:02:51;;;;;;;23.80;14.80;;;;;;;;;;10255415;28;20232;-83
2021/01/31 00:07:53;;;;;;;22.33;14.10;;;;;;;;;;10255478;28;20710;-83
2021/01/31 00:12:56;;;;;;;26.77;15.10;;;;;;;;;;10251924;28;20265;-82
2021/01/31 00:17:58;;;;;;;26.57;15.73;;;;;;;;;;10252467;28;20246;-82
2021/01/31 00:23:01;;;;;;;25.47;15.57;;;;;;;;;;10250953;28;20221;-81
2021/01/31 00:28:04;;;;;;;24.17;15.00;;;;;;;;;;10254075;28;20748;-83
2021/01/31 00:33:06;;;;;;;26.43;15.23;;;;;;;;;;10248345;28;20225;-83
2021/01/31 00:38:09;;;;;;;26.50;16.30;;;;;;;;;;10253752;28;20246;-82
2021/01/31 00:43:13;;;;;;;27.20;15.90;;;;;;;;;;10256556;28;20217;-81
2021/01/31 00:48:15;;;;;;;25.93;15.27;;;;;;;;;;10263466;28;20219;-81
2021/01/31 00:53:17;;;;;;;28.53;16.00;;;;;;;;;;10303123;28;20222;-81
2021/01/31 00:58:20;;;;;;;25.97;15.80;;;;;;;;;;10289776;28;20230;-81
2021/01/31 01:03:22;;;;;;;26.00;15.60;;;;;;;;;;10292842;28;20214;-83
2021/01/31 01:08:24;;;;;;;26.33;15.80;;;;;;;;;;10269533;28;20235;-84
2021/01/31 01:13:27;;;;;;;24.70;15.13;;;;;;;;;;10258089;28;20230;-85
2021/01/31 01:18:29;;;;;;;27.13;15.43;;;;;;;;;;10258452;28;20244;-85
2021/01/31 01:23:30;;;;;;;26.67;15.67;;;;;;;;;;10252690;28;20213;-87
2021/01/31 01:28:33;;;;;;;25.73;15.50;;;;;;;;;;10254543;28;20684;-87
2021/01/31 01:33:35;;;;;;;26.03;15.10;;;;;;;;;;10244549;28;20235;-87
2021/01/31 01:38:37;;;;;;;23.43;14.63;;;;;;;;;;10253563;28;20759;-88
2021/01/31 01:43:40;;;;;;;26.87;16.33;;;;;;;;;;10249250;28;20747;-87
2021/01/31 01:48:42;;;;;;;26.07;15.90;;;;;;;;;;10251007;28;20211;-85
2021/01/31 01:53:45;;;;;;;26.83;16.10;;;;;;;;;;10247073;28;20727;-86
2021/01/31 01:58:48;;;;;;;25.37;15.60;;;;;;;;;;10248214;28;20241;-85
2021/01/31 02:03:53;;;;;;;27.53;15.30;;;;;;;;;;10251130;28;20218;-85
2021/01/31 02:08:55;;;;;;;24.63;15.30;;;;;;;;;;10244229;28;20241;-87
2021/01/31 02:14:00;;;;;;;25.57;16.10;;;;;;;;;;10251613;28;20719;-86
2021/01/31 02:19:09;;;;;;;24.57;15.17;;;;;;;;;;10251581;28;20248;-88
2021/01/31 02:24:36;;;;;;;26.83;16.27;;;;;;;;;;10252251;28;20214;-86
2021/01/31 02:30:01;;;;;;;26.93;15.47;;;;;;;;;;10253478;28;20598;-88
2021/01/31 02:35:06;;;;;;;25.00;15.23;;;;;;;;;;10179982;28;20264;-86
2021/01/31 02:40:10;;;;;;;25.27;15.03;;;;;;;;;;10248155;28;20222;-84
2021/01/31 02:45:16;;;;;;;28.50;16.33;;;;;;;;;;10250742;28;20222;-87
2021/01/31 02:50:21;;;;;;;25.53;15.77;;;;;;;;;;10247585;28;20251;-85
2021/01/31 02:55:25;;;;;;;26.03;15.77;;;;;;;;;;10250092;28;20713;-86
2021/01/31 03:00:31;;;;;;;24.73;14.97;;;;;;;;;;10226762;28;20218;-85
2021/01/31 03:05:38;;;;;;;26.43;16.37;;;;;;;;;;10251685;28;20226;-86
2021/01/31 03:10:43;;;;;;;27.00;15.10;;;;;;;;;;10245204;28;20214;-85
2021/01/31 03:15:47;;;;;;;24.00;14.80;;;;;;;;;;10246154;28;20627;-86
2021/01/31 03:20:54;;;;;;;26.87;15.57;;;;;;;;;;10251128;28;20598;-89
2021/01/31 03:25:59;;;;;;;27.07;15.87;;;;;;;;;;10232382;28;20218;-84
2021/01/31 03:31:02;;;;;;;26.43;15.97;;;;;;;;;;10249615;28;20225;-87
2021/01/31 03:36:05;;;;;;;22.73;14.47;;;;;;;;;;10251127;28;20241;-89
2021/01/31 03:41:09;;;;;;;27.87;16.23;;;;;;;;;;10251409;28;20225;-85
2021/01/31 03:46:15;;;;;;;25.23;15.63;;;;;;;;;;10246179;28;20594;-85
2021/01/31 03:51:19;;;;;;;23.47;14.93;;;;;;;;;;10245594;28;20294;-85
2021/01/31 03:56:23;;;;;;;26.50;16.00;;;;;;;;;;10250428;28;20756;-86
2021/01/31 04:01:25;;;;;;;26.30;15.67;;;;;;;;;;10251044;28;20677;-84
2021/01/31 04:06:30;;;;;;;24.27;14.63;;;;;;;;;;10256405;28;20226;-88
2021/01/31 04:11:33;;;;;;;27.40;16.30;;;;;;;;;;10250321;28;20215;-87
2021/01/31 04:16:38;;;;;;;26.43;15.50;;;;;;;;;;10254793;28;20774;-87
2021/01/31 04:21:41;;;;;;;26.27;15.87;;;;;;;;;;10259404;28;20222;-86
2021/01/31 04:26:43;;;;;;;29.00;15.67;;;;;;;;;;10266522;28;20217;-89
2021/01/31 04:31:45;;;;;;;24.17;14.40;;;;;;;;;;10260200;28;20218;-87
2021/01/31 04:36:48;;;;;;;26.20;16.33;;;;;;;;;;10252689;28;20238;-87
2021/01/31 04:41:50;;;;;;;27.43;16.10;;;;;;;;;;10253194;28;20230;-87
2021/01/31 04:46:55;;;;;;;26.03;15.57;;;;;;;;;;10250377;28;20218;-86
2021/01/31 04:52:06;;;;;;;28.50;16.30;;;;;;;;;;10248840;28;20304;-86
2021/01/31 04:57:12;;;;;;;27.83;16.67;;;;;;;;;;10253051;28;20238;-86
2021/01/31 05:02:17;;;;;;;30.20;17.00;;;;;;;;;;10247650;28;20686;-85
2021/01/31 05:07:23;;;;;;;27.77;16.27;;;;;;;;;;10247872;28;20226;-85
2021/01/31 05:12:33;;;;;;;25.87;15.90;;;;;;;;;;10259311;28;20369;-88
2021/01/31 05:17:35;;;;;;;30.23;17.27;;;;;;;;;;10249539;28;20723;-89
2021/01/31 05:22:41;;;;;;;29.27;16.87;;;;;;;;;;10247155;28;20821;-82
2021/01/31 05:27:43;;;;;;;29.60;17.37;;;;;;;;;;10242027;28;20222;-83
2021/01/31 05:33:03;;;;;;;26.17;16.10;;;;;;;;;;10249618;28;20269;-83
2021/01/31 05:38:05;;;;;;;26.77;16.13;;;;;;;;;;10230114;28;20238;-81
2021/01/31 05:43:13;;;;;;;25.93;15.40;;;;;;;;;;10251694;28;20565;-87
2021/01/31 05:48:17;;;;;;;28.33;15.83;;;;;;;;;;10248635;28;20222;-88
2021/01/31 05:53:36;;;;;;;28.23;16.27;;;;;;;;;;10256705;28;20226;-86
2021/01/31 05:58:39;;;;;;;28.93;16.90;;;;;;;;;;10256909;28;20248;-87
2021/01/31 06:03:42;;;;;;;27.87;16.40;;;;;;;;;;10260950;28;20221;-87
2021/01/31 06:08:45;;;;;;;28.97;17.07;;;;;;;;;;10260602;28;20596;-87
2021/01/31 06:13:48;;;;;;;27.70;16.33;;;;;;;;;;10257982;28;20230;-89
2021/01/31 06:18:52;;;;;;;28.07;16.73;;;;;;;;;;10260222;28;20249;-89
2021/01/31 06:23:54;;;;;;;28.60;17.07;;;;;;;;;;10254910;28;20563;-86
2021/01/31 06:28:59;;;;;;;27.40;16.43;;;;;;;;;;10252636;28;20215;-88
2021/01/31 06:34:05;;;;;;;26.50;15.97;;;;;;;;;;10267799;28;20600;-91
2021/01/31 06:39:11;;;;;;;27.80;15.80;;;;;;;;;;10296582;28;20237;-91
2021/01/31 06:49:48;;;;;;;26.13;15.60;;;;;;;;;;4934317;26;20230;-82
2021/01/31 06:55:20;;;;;;;;;;;;;;;;;;;;;
2021/01/31 07:07:51;;;;;;;28.63;16.60;;;;;;;;;;10227616;28;20233;-84
2021/01/31 07:13:54;;;;;;;33.70;16.97;;;;;;;;;;10245994;28;20225;-85
2021/01/31 07:43:01;;;;;;;28.27;16.20;;;;;;;;;;10253621;23;20260;-92
2021/01/31 07:48:22;;;;;;;31.20;17.53;;;;;;;;;;10365659;28;20217;-92
2021/01/31 07:53:26;;;;;;;31.33;16.97;;;;;;;;;;10366267;28;20316;-92
2021/01/31 07:58:38;;;;;;;28.20;15.63;;;;;;;;;;10369726;28;20241;-91
2021/01/31 08:03:40;;;;;;;28.87;16.93;;;;;;;;;;10373874;28;20220;-94
2021/01/31 08:08:47;;;;;;;30.30;16.30;;;;;;;;;;10371335;28;20221;-90
2021/01/31 08:13:50;;;;;;;28.00;16.47;;;;;;;;;;10358960;28;20229;-93
2021/01/31 08:19:02;;;;;;;28.03;16.20;;;;;;;;;;10348979;28;20554;-92
2021/01/31 08:24:03;;;;;;;29.33;17.10;;;;;;;;;;10325799;28;20277;-91
2021/01/31 08:29:16;;;;;;;29.73;16.27;;;;;;;;;;10316117;28;20281;-91
2021/01/31 08:34:18;;;;;;;28.10;16.67;;;;;;;;;;10329045;28;20300;-92
2021/01/31 08:39:27;;;;;;;28.90;16.53;;;;;;;;;;10346745;28;20301;-93
2021/01/31 08:44:53;;;;;;;29.63;16.03;;;;;;;;;;10363037;28;20269;-92
2021/01/31 08:49:59;;;;;;;27.97;16.13;;;;;;;;;;10348804;28;20210;-92
2021/01/31 08:55:02;;;;;;;30.30;17.30;;;;;;;;;;10347014;28;20240;-91
2021/01/31 09:00:12;;;;;;;26.37;15.60;;;;;;;;;;10286570;28;21057;-81
2021/01/31 09:05:16;;;;;;;28.03;16.23;;;;;;;;;;10290335;28;20667;-91
2021/01/31 09:10:25;;;;;;;28.70;16.40;;;;;;;;;;10296855;28;20676;-93
2021/01/31 09:15:27;;;;;;;25.73;15.00;;;;;;;;;;10302938;28;20276;-90
2021/01/31 09:20:30;;;;;;;27.27;15.37;;;;;;;;;;10308244;28;20234;-90
2021/01/31 09:25:35;;;;;;;27.23;15.90;;;;;;;;;;10303295;28;20275;-86
2021/01/31 09:30:38;;;;;;;27.57;15.87;;;;;;;;;;10273481;28;20221;-79
2021/01/31 09:35:41;;;;;;;27.30;15.27;;;;;;;;;;10285097;28;20687;-83
2021/01/31 09:40:43;;;;;;;26.40;15.27;;;;;;;;;;10282891;28;20240;-79
2021/01/31 09:45:47;;;;;;;27.40;15.83;;;;;;;;;;10280501;28;20221;-82
2021/01/31 09:50:57;;;;;;;24.13;14.43;;;;;;;;;;10282962;28;20221;-85
2021/01/31 09:56:00;;;;;;;26.00;15.60;;;;;;;;;;10284292;28;20214;-85
2021/01/31 10:01:36;;;;;;;25.70;14.70;;;;;;;;;;10275380;28;20214;-90
2021/01/31 10:06:41;;;;;;;22.73;13.27;;;;;;;;;;10295728;28;20221;-76
2021/01/31 10:11:44;;;;;;;27.63;15.33;;;;;;;;;;10284557;28;20241;-79
2021/01/31 10:16:46;;;;;;;23.67;13.77;;;;;;;;;;10278142;28;20379;-81
2021/01/31 10:22:00;;;;;;;22.30;13.33;;;;;;;;;;10279619;28;20214;-82
2021/01/31 10:27:06;;;;;;;23.10;13.43;;;;;;;;;;10265087;28;20217;-89
2021/01/31 10:32:18;;;;;;;24.47;14.00;;;;;;;;;;10275473;28;20300;-85
2021/01/31 10:37:34;;;;;;;23.73;13.83;;;;;;;;;;10286391;28;20261;-81
2021/01/31 10:42:36;;;;;;;23.53;13.23;;;;;;;;;;10277678;28;20383;-80
2021/01/31 10:47:38;;;;;;;20.50;12.23;;;;;;;;;;10276808;28;20244;-80
2021/01/31 10:52:41;;;;;;;21.30;12.93;;;;;;;;;;10269993;28;20218;-83
2021/01/31 10:57:44;;;;;;;22.73;12.90;;;;;;;;;;10277230;28;20241;-83
2021/01/31 11:02:46;;;;;;;21.90;13.00;;;;;;;;;;10273695;28;20224;-85
2021/01/31 11:07:53;;;;;;;23.50;13.40;;;;;;;;;;10310493;28;20224;-86
2021/01/31 11:12:54;;;;;;;21.73;13.03;;;;;;;;;;10287530;28;20423;-81
2021/01/31 11:17:56;;;;;;;21.97;12.67;;;;;;;;;;10290938;28;20237;-83
2021/01/31 11:22:59;;;;;;;21.90;13.30;;;;;;;;;;10293467;28;20220;-83
2021/01/31 11:28:01;;;;;;;20.17;12.03;;;;;;;;;;10291543;28;20224;-81
2021/01/31 11:33:04;;;;;;;21.73;12.70;;;;;;;;;;10296679;28;20699;-85
2021/01/31 11:38:06;;;;;;;18.63;10.83;;;;;;;;;;10288169;28;20244;-85
2021/01/31 11:43:08;;;;;;;21.20;11.80;;;;;;;;;;10302169;28;20221;-88
2021/01/31 11:48:11;;;;;;;19.60;11.80;;;;;;;;;;10304137;28;20753;-87
2021/01/31 11:53:14;;;;;;;19.33;11.97;;;;;;;;;;10288060;28;20742;-83
2021/01/31 11:58:17;;;;;;;18.80;11.63;;;;;;;;;;10280080;28;20237;-82
2021/01/31 12:03:19;;;;;;;16.10;10.47;;;;;;;;;;10290717;28;20701;-82
2021/01/31 12:08:22;;;;;;;15.20;9.77;;;;;;;;;;10281828;28;20223;-80
2021/01/31 12:13:24;;;;;;;17.60;10.60;;;;;;;;;;10285638;28;20649;-80
2021/01/31 12:18:26;;;;;;;16.80;10.30;;;;;;;;;;10275728;28;20238;-82
2021/01/31 12:23:30;;;;;;;16.30;9.90;;;;;;;;;;10285267;28;20224;-84
2021/01/31 12:28:32;;;;;;;16.10;10.00;;;;;;;;;;10283020;28;20308;-84
2021/01/31 12:33:34;;;;;;;15.90;9.93;;;;;;;;;;10284635;28;20217;-82
2021/01/31 12:38:37;;;;;;;15.00;10.07;;;;;;;;;;10278412;28;20249;-79
2021/01/31 12:43:39;;;;;;;14.27;9.07;;;;;;;;;;10283497;28;20586;-80
2021/01/31 12:48:58;;;;;;;15.77;9.57;;;;;;;;;;10307955;28;20214;-83
2021/01/31 12:54:01;;;;;;;14.43;8.67;;;;;;;;;;10294388;28;20218;-84
2021/01/31 12:59:03;;;;;;;16.93;9.87;;;;;;;;;;10295910;28;20238;-81
2021/01/31 13:04:05;;;;;;;14.13;9.37;;;;;;;;;;10302979;28;21820;-81
2021/01/31 13:09:09;;;;;;;15.30;8.87;;;;;;;;;;10299867;28;20686;-86
2021/01/31 13:14:11;;;;;;;16.40;9.43;;;;;;;;;;10295567;28;20234;-83
2021/01/31 13:19:13;;;;;;;15.67;9.67;;;;;;;;;;10288911;28;20237;-84
2021/01/31 13:24:16;;;;;;;16.30;9.87;;;;;;;;;;10289513;28;20225;-82
2021/01/31 13:29:18;;;;;;;14.60;8.97;;;;;;;;;;10293021;28;20221;-80
2021/01/31 13:34:20;;;;;;;15.17;9.20;;;;;;;;;;10290216;28;20240;-81
2021/01/31 13:39:23;;;;;;;15.90;9.33;;;;;;;;;;10286079;28;20236;-79
2021/01/31 13:44:25;;;;;;;16.23;9.10;;;;;;;;;;10285832;28;20229;-80
2021/01/31 13:49:27;;;;;;;14.23;8.90;;;;;;;;;;10292635;28;20456;-82
2021/01/31 13:54:30;;;;;;;15.13;9.00;;;;;;;;;;10281916;28;20615;-81
2021/01/31 13:59:32;;;;;;;14.07;8.70;;;;;;;;;;10283762;28;20449;-80
2021/01/31 14:04:34;;;;;;;14.27;8.97;;;;;;;;;;10283060;28;20213;-80
2021/01/31 14:09:37;;;;;;;14.67;8.63;;;;;;;;;;10268866;28;20467;-81
2021/01/31 14:14:40;;;;;;;15.00;9.07;;;;;;;;;;10285163;28;20246;-84
2021/01/31 14:19:42;;;;;;;14.33;8.80;;;;;;;;;;10286631;28;20248;-82
2021/01/31 14:24:45;;;;;;;15.27;8.40;;;;;;;;;;10272691;28;21074;-82
2021/01/31 14:29:47;;;;;;;14.73;8.57;;;;;;;;;;10280729;28;20239;-82
2021/01/31 14:34:50;;;;;;;15.40;8.23;;;;;;;;;;10277523;28;20851;-83
2021/01/31 14:39:53;;;;;;;16.93;8.73;;;;;;;;;;10271521;28;20617;-83
2021/01/31 14:44:54;;;;;;;15.67;8.57;;;;;;;;;;10285321;28;20541;-84
2021/01/31 14:49:56;;;;;;;11.90;8.27;;;;;;;;;;10285103;28;20605;-84
2021/01/31 14:55:00;;;;;;;11.60;7.33;;;;;;;;;;10278363;28;20213;-84
2021/01/31 15:00:02;;;;;;;12.70;7.73;;;;;;;;;;10276926;28;20237;-84
2021/01/31 15:05:05;;;;;;;13.60;7.80;;;;;;;;;;10277024;28;20765;-83
2021/01/31 15:10:09;;;;;;;12.40;8.10;;;;;;;;;;10275945;28;20217;-84
2021/01/31 15:15:11;;;;;;;12.50;8.53;;;;;;;;;;10280991;28;20234;-83
2021/01/31 15:20:15;;;;;;;14.63;7.97;;;;;;;;;;10271174;28;20614;-83
2021/01/31 15:25:18;;;;;;;13.23;7.83;;;;;;;;;;10277749;28;20213;-82
2021/01/31 15:30:23;;;;;;;15.20;8.17;;;;;;;;;;10266966;28;20723;-83
2021/01/31 15:35:25;;;;;;;11.53;7.50;;;;;;;;;;10277416;28;20241;-80
2021/01/31 15:40:28;;;;;;;13.10;7.63;;;;;;;;;;10268098;28;20715;-83
2021/01/31 15:45:31;;;;;;;12.27;7.77;;;;;;;;;;10277898;28;20229;-83
2021/01/31 15:50:37;;;;;;;16.17;7.97;;;;;;;;;;10267893;28;20525;-83
2021/01/31 15:55:40;;;;;;;11.33;7.30;;;;;;;;;;10280135;28;20210;-84
2021/01/31 16:00:42;;;;;;;10.23;6.83;;;;;;;;;;10275304;28;20237;-88
2021/01/31 16:05:49;;;;;;;12.10;7.37;;;;;;;;;;10276777;28;20967;-85
2021/01/31 16:10:56;;;;;;;11.63;7.27;;;;;;;;;;10289249;28;20216;-84
2021/01/31 16:15:59;;;;;;;13.57;7.60;;;;;;;;;;10277326;28;20234;-82
2021/01/31 16:21:01;;;;;;;12.17;7.90;;;;;;;;;;10283358;28;20245;-84
2021/01/31 16:26:04;;;;;;;13.50;7.90;;;;;;;;;;10278766;28;20213;-84
2021/01/31 16:31:09;;;;;;;11.53;7.87;;;;;;;;;;10285924;28;20652;-84
2021/01/31 16:36:12;;;;;;;14.57;8.70;;;;;;;;;;10279800;28;20225;-85
2021/01/31 16:41:15;;;;;;;14.43;8.63;;;;;;;;;;10285323;28;20785;-84
2021/01/31 16:46:19;;;;;;;16.60;8.97;;;;;;;;;;10280416;28;20206;-84
2021/01/31 16:51:21;;;;;;;14.40;9.00;;;;;;;;;;10285068;28;20225;-84
2021/01/31 16:56:24;;;;;;;14.43;9.03;;;;;;;;;;10275555;28;20216;-84
2021/01/31 17:01:31;;;;;;;16.10;9.83;;;;;;;;;;10275566;28;20245;-84
2021/01/31 17:06:34;;;;;;;19.03;10.43;;;;;;;;;;10272283;28;20236;-83
2021/01/31 17:11:37;;;;;;;15.10;10.00;;;;;;;;;;10285799;28;20229;-84
2021/01/31 17:16:39;;;;;;;16.43;10.13;;;;;;;;;;10284462;28;20233;-85
2021/01/31 17:21:43;;;;;;;15.80;9.93;;;;;;;;;;10278026;28;20218;-83
2021/01/31 17:26:49;;;;;;;17.07;10.60;;;;;;;;;;10275561;28;20209;-85
2021/01/31 17:31:54;;;;;;;14.97;9.70;;;;;;;;;;10277180;28;20218;-83
2021/01/31 17:36:56;;;;;;;17.60;10.27;;;;;;;;;;10280298;28;20214;-84
2021/01/31 17:41:59;;;;;;;17.13;10.97;;;;;;;;;;10274910;28;20218;-86
2021/01/31 17:47:02;;;;;;;18.03;11.00;;;;;;;;;;10283677;28;20608;-86
2021/01/31 17:52:04;;;;;;;17.90;11.00;;;;;;;;;;10280148;28;20233;-87
2021/01/31 17:57:08;;;;;;;17.03;10.40;;;;;;;;;;10273930;28;20233;-90
2021/01/31 18:02:10;;;;;;;16.90;10.67;;;;;;;;;;10289562;28;20675;-88
2021/01/31 18:07:14;;;;;;;17.47;11.30;;;;;;;;;;10287995;28;20236;-90
2021/01/31 18:12:17;;;;;;;17.60;11.63;;;;;;;;;;10284034;28;20336;-86
2021/01/31 18:17:20;;;;;;;17.40;11.07;;;;;;;;;;10281767;28;20281;-89
2021/01/31 18:22:22;;;;;;;16.73;10.67;;;;;;;;;;10280418;28;20217;-88
2021/01/31 18:27:25;;;;;;;18.70;11.27;;;;;;;;;;10282856;28;20220;-82
2021/01/31 18:32:27;;;;;;;18.20;10.83;;;;;;;;;;10280555;28;20210;-82
2021/01/31 18:37:29;;;;;;;17.50;11.00;;;;;;;;;;10279011;28;20233;-82
2021/01/31 18:42:32;;;;;;;17.80;11.40;;;;;;;;;;10284416;28;20586;-83
2021/01/31 18:47:34;;;;;;;16.87;11.07;;;;;;;;;;10277718;28;20677;-83
2021/01/31 18:52:39;;;;;;;16.33;10.87;;;;;;;;;;10276729;28;20718;-84
2021/01/31 18:57:42;;;;;;;16.33;10.90;;;;;;;;;;10270219;28;20249;-83
2021/01/31 19:02:43;;;;;;;16.53;10.37;;;;;;;;;;10275271;28;20222;-83
2021/01/31 19:07:46;;;;;;;19.87;11.47;;;;;;;;;;10283416;28;20229;-83
2021/01/31 19:12:51;;;;;;;16.30;10.57;;;;;;;;;;10300737;28;20226;-82
2021/01/31 19:17:53;;;;;;;17.83;10.50;;;;;;;;;;10279742;28;20240;-82
2021/01/31 19:22:55;;;;;;;16.70;10.50;;;;;;;;;;10270002;28;20214;-85
2021/01/31 19:27:58;;;;;;;16.90;10.57;;;;;;;;;;10275418;28;20230;-83
2021/01/31 19:33:00;;;;;;;18.17;11.30;;;;;;;;;;10278246;28;20215;-84
2021/01/31 19:38:03;;;;;;;18.73;11.47;;;;;;;;;;10287035;28;20233;-87
2021/01/31 19:43:06;;;;;;;18.03;11.70;;;;;;;;;;10281854;28;20582;-86
2021/01/31 19:48:09;;;;;;;17.80;11.37;;;;;;;;;;10276352;28;20210;-86
2021/01/31 19:53:12;;;;;;;18.80;11.70;;;;;;;;;;10282128;28;20228;-88
2021/01/31 19:58:17;;;;;;;16.57;10.93;;;;;;;;;;10279599;28;20287;-87
2021/01/31 20:03:20;;;;;;;17.43;11.20;;;;;;;;;;10288357;28;20327;-87
2021/01/31 20:08:22;;;;;;;16.97;11.33;;;;;;;;;;10286269;28;20222;-86
2021/01/31 20:13:25;;;;;;;18.03;11.33;;;;;;;;;;10284510;28;20248;-87
2021/01/31 20:18:29;;;;;;;20.70;11.90;;;;;;;;;;10282559;28;20323;-86
2021/01/31 20:23:31;;;;;;;15.23;10.37;;;;;;;;;;10278012;28;20214;-86
2021/01/31 20:28:35;;;;;;;17.73;11.27;;;;;;;;;;10282219;28;20694;-89
2021/01/31 20:33:36;;;;;;;18.70;11.50;;;;;;;;;;10289184;28;20628;-87
2021/01/31 20:38:41;;;;;;;17.53;11.07;;;;;;;;;;10293101;28;20337;-88
2021/01/31 20:43:45;;;;;;;16.73;11.03;;;;;;;;;;10290808;28;20292;-86
2021/01/31 20:48:49;;;;;;;19.87;11.47;;;;;;;;;;10294045;28;20240;-86
2021/01/31 20:53:54;;;;;;;17.90;11.73;;;;;;;;;;10294209;28;20220;-85
2021/01/31 20:58:57;;;;;;;18.40;11.57;;;;;;;;;;10292751;28;20249;-86
2021/01/31 21:04:00;;;;;;;19.30;12.27;;;;;;;;;;10293996;28;20673;-87
2021/01/31 21:09:04;;;;;;;18.13;12.00;;;;;;;;;;10291625;28;20221;-87
2021/01/31 21:14:07;;;;;;;18.37;11.67;;;;;;;;;;10288113;28;20723;-86
2021/01/31 21:19:09;;;;;;;20.10;11.90;;;;;;;;;;10291251;28;20240;-86
2021/01/31 21:24:11;;;;;;;17.30;11.57;;;;;;;;;;10296744;28;20214;-87
2021/01/31 21:29:14;;;;;;;18.63;11.03;;;;;;;;;;10295487;28;20225;-87
2021/01/31 21:34:16;;;;;;;19.17;11.70;;;;;;;;;;10290885;28;20305;-87
2021/01/31 21:39:18;;;;;;;18.23;11.17;;;;;;;;;;10289741;28;20306;-87
2021/01/31 21:44:21;;;;;;;16.67;11.30;;;;;;;;;;10284643;28;20218;-88
2021/01/31 21:49:24;;;;;;;17.30;11.30;;;;;;;;;;10288890;28;20311;-86
2021/01/31 21:54:26;;;;;;;17.73;11.10;;;;;;;;;;10280890;28;20213;-87
2021/01/31 21:59:29;;;;;;;17.73;11.20;;;;;;;;;;10282688;28;20237;-87
2021/01/31 22:04:31;;;;;;;18.10;10.90;;;;;;;;;;10280287;28;20668;-87
2021/01/31 22:09:33;;;;;;;17.53;11.27;;;;;;;;;;10286955;28;20213;-86
2021/01/31 22:14:36;;;;;;;17.30;10.80;;;;;;;;;;10288896;28;20232;-86
2021/01/31 22:19:38;;;;;;;16.93;10.67;;;;;;;;;;10282738;28;20245;-85
2021/01/31 22:24:40;;;;;;;16.13;10.70;;;;;;;;;;10278143;28;20228;-85
2021/01/31 22:29:43;;;;;;;16.57;10.70;;;;;;;;;;10278718;28;20228;-85
2021/01/31 22:34:45;;;;;;;16.20;10.57;;;;;;;;;;10285619;28;20472;-86
2021/01/31 22:39:49;;;;;;;18.97;10.67;;;;;;;;;;10280499;28;20229;-85
2021/01/31 22:44:54;;;;;;;17.60;10.60;;;;;;;;;;10282347;28;24193;-86
2021/01/31 22:49:55;;;;;;;18.50;11.30;;;;;;;;;;10281800;28;20224;-85
2021/01/31 22:54:58;;;;;;;19.97;10.77;;;;;;;;;;10282866;28;20220;-84
2021/01/31 23:00:01;;;;;;;16.10;10.20;;;;;;;;;;10284764;28;20237;-87
2021/01/31 23:05:03;;;;;;;17.23;10.40;;;;;;;;;;10288234;28;20244;-85
2021/01/31 23:10:06;;;;;;;17.13;10.33;;;;;;;;;;10288133;28;20226;-86
2021/01/31 23:15:10;;;;;;;15.80;10.67;;;;;;;;;;10288293;28;20237;-85
2021/01/31 23:20:13;;;;;;;16.53;9.60;;;;;;;;;;10294525;28;21075;-86
2021/01/31 23:25:17;;;;;;;16.73;10.30;;;;;;;;;;10291025;28;20687;-87
2021/01/31 23:30:22;;;;;;;17.60;10.40;;;;;;;;;;10286978;28;20218;-87
2021/01/31 23:35:24;;;;;;;16.60;10.20;;;;;;;;;;10295293;28;20217;-84
2021/01/31 23:40:27;;;;;;;15.57;9.97;;;;;;;;;;10300427;28;20465;-87
2021/01/31 23:45:33;;;;;;;15.37;9.83;;;;;;;;;;10292963;28;20218;-88
2021/01/31 23:50:35;;;;;;;18.93;9.93;;;;;;;;;;10293606;28;20222;-86
2021/01/31 23:55:37;;;;;;;13.77;9.47;;;;;;;;;;10288104;28;20214;-87
